Time;durP1;ratioP1;P1;durP2;ratioP2;P2;SDS_P1;SDS_P2;PMS_P1;PMS_P2;Temp;Humidity;BMP_temperature;BMP_pressure;BME280_temperature;BME280_humidity;BME280_pressure;Samples;Min_cycle;Max_cycle;Signal;HPM_P1;HPM_P2
2022/08/29 00:02:18;;;;;;;8.90;3.80;;;;;18.40;97380.60;;;;110850;1249;41260;-70
2022/08/29 00:04:48;;;;;;;9.00;3.10;;;;;18.30;97376.40;;;;110611;1251;41157;-69
2022/08/29 00:07:17;;;;;;;7.20;3.10;;;;;18.30;97379.40;;;;110610;1251;41601;-70
2022/08/29 00:09:48;;;;;;;8.90;3.40;;;;;18.30;97373.80;;;;110653;1249;41689;-70
2022/08/29 00:12:17;;;;;;;7.90;3.10;;;;;18.30;97371.80;;;;110661;1248;41442;-69
2022/08/29 00:14:46;;;;;;;9.70;3.60;;;;;18.28;97371.40;;;;110667;1250;41416;-70
2022/08/29 00:17:16;;;;;;;7.90;3.10;;;;;18.30;97367.40;;;;110674;1250;41611;-70
2022/08/29 00:19:46;;;;;;;9.00;3.40;;;;;18.24;97368.80;;;;110680;1249;41161;-69
2022/08/29 00:22:16;;;;;;;7.50;3.20;;;;;18.20;97364.80;;;;110703;1250;41492;-70
2022/08/29 00:24:47;;;;;;;9.70;3.20;;;;;18.22;97364.40;;;;110775;1250;41896;-71
2022/08/29 00:27:16;;;;;;;6.60;2.90;;;;;18.28;97360.20;;;;110896;1250;41814;-70
2022/08/29 00:29:46;;;;;;;11.10;4.30;;;;;18.28;97356.00;;;;110959;1250;41599;-70
2022/08/29 00:32:16;;;;;;;9.10;4.00;;;;;18.10;97355.60;;;;110920;1250;41612;-68
2022/08/29 00:34:46;;;;;;;14.30;4.20;;;;;18.00;97356.20;;;;110884;1249;41532;-69
2022/08/29 00:37:16;;;;;;;11.00;4.00;;;;;17.90;97357.60;;;;110891;1250;43148;-68
2022/08/29 00:39:47;;;;;;;7.70;3.20;;;;;17.80;97359.60;;;;110858;1251;41620;-69
2022/08/29 00:42:18;;;;;;;8.80;3.80;;;;;17.80;97362.00;;;;110969;1250;41413;-69
2022/08/29 00:44:49;;;;;;;8.00;3.10;;;;;17.80;97361.00;;;;110877;1250;41329;-69
2022/08/29 00:47:22;;;;;;;8.40;3.40;;;;;17.82;97357.60;;;;110705;1251;41616;-68
2022/08/29 00:49:54;;;;;;;7.10;3.00;;;;;17.80;97355.20;;;;110747;1249;41949;-69
2022/08/29 00:52:27;;;;;;;8.50;3.20;;;;;17.80;97357.20;;;;110713;1250;41676;-68
2022/08/29 00:54:58;;;;;;;7.90;3.70;;;;;17.80;97359.20;;;;110660;1250;41161;-68
2022/08/29 00:57:30;;;;;;;10.10;3.70;;;;;17.80;97359.40;;;;110674;1250;41619;-69
2022/08/29 01:00:00;;;;;;;7.90;3.20;;;;;17.70;97360.00;;;;110793;1251;41640;-68
2022/08/29 01:02:30;;;;;;;7.50;3.50;;;;;17.60;97357.60;;;;110719;1249;41147;-68
2022/08/29 01:05:03;;;;;;;8.70;3.50;;;;;17.60;97355.80;;;;110623;1251;41641;-69
2022/08/29 01:07:32;;;;;;;7.00;2.80;;;;;17.58;97355.00;;;;110716;1251;41251;-69
2022/08/29 01:10:05;;;;;;;7.60;2.70;;;;;17.60;97354.60;;;;110827;1250;41508;-69
2022/08/29 01:12:42;;;;;;;8.20;2.90;;;;;17.60;97349.80;;;;110855;1250;41179;-70
2022/08/29 01:15:12;;;;;;;5.70;2.40;;;;;17.60;97347.80;;;;110778;1250;41139;-70
2022/08/29 01:17:46;;;;;;;7.00;2.60;;;;;17.60;97341.00;;;;110812;1250;41615;-69
2022/08/29 01:20:34;;;;;;;8.50;2.80;;;;;17.60;97341.20;;;;110830;1250;41922;-69
2022/08/29 01:23:16;;;;;;;6.40;2.60;;;;;17.60;97339.40;;;;110679;1251;41276;-69
2022/08/29 01:25:49;;;;;;;6.30;2.70;;;;;17.60;97340.40;;;;110950;1250;41150;-69
2022/08/29 01:28:22;;;;;;;8.20;2.50;;;;;17.60;97342.80;;;;110918;1250;41163;-69
2022/08/29 01:31:26;;;;;;;6.70;2.60;;;;;17.60;97344.20;;;;110705;1252;42533;-69
2022/08/29 01:34:06;;;;;;;6.00;2.50;;;;;17.58;97345.00;;;;110627;1251;42405;-69
2022/08/29 01:36:49;;;;;;;5.40;2.40;;;;;17.50;97348.00;;;;110736;1251;41157;-68
2022/08/29 01:39:25;;;;;;;7.40;2.20;;;;;17.50;97350.60;;;;110909;1249;41608;-69
2022/08/29 01:42:00;;;;;;;8.10;3.40;;;;;17.50;97351.20;;;;110958;1250;41630;-69
2022/08/29 01:44:30;;;;;;;9.60;4.20;;;;;17.50;97348.80;;;;110878;1250;41703;-70
2022/08/29 01:47:00;;;;;;;15.90;7.30;;;;;17.40;97345.80;;;;110981;1250;41179;-69
2022/08/29 01:49:33;;;;;;;12.30;4.70;;;;;17.44;97347.80;;;;110918;1250;41251;-68
2022/08/29 01:52:06;;;;;;;8.30;3.80;;;;;17.40;97352.60;;;;110864;1250;41142;-69
2022/08/29 01:54:36;;;;;;;8.50;3.50;;;;;17.30;97347.40;;;;110930;1251;41278;-69
2022/08/29 01:57:08;;;;;;;7.70;3.60;;;;;17.30;97348.80;;;;110946;1250;41151;-69
2022/08/29 01:59:42;;;;;;;8.90;3.50;;;;;17.20;97348.00;;;;110827;1250;41172;-68
2022/08/29 02:02:16;;;;;;;;;;;;;17.20;97351.60;;;;110738;1250;41132;-67
2022/08/29 02:04:47;;;;;;;8.90;3.70;;;;;17.14;97345.80;;;;110803;1250;41183;-68
2022/08/29 02:07:19;;;;;;;11.80;3.50;;;;;17.10;97347.60;;;;110789;1250;41769;-68
2022/08/29 02:09:49;;;;;;;7.00;3.10;;;;;17.10;97344.80;;;;110907;1250;41709;-69
2022/08/29 02:12:21;;;;;;;8.10;2.80;;;;;17.10;97350.40;;;;111019;1250;41173;-69
2022/08/29 02:14:52;;;;;;;8.00;2.90;;;;;17.08;97353.80;;;;110720;1249;41717;-66
2022/08/29 02:17:24;;;;;;;7.50;2.90;;;;;17.08;97352.20;;;;110820;1251;41152;-69
2022/08/29 02:19:57;;;;;;;8.60;3.20;;;;;17.02;97349.60;;;;110998;1249;41181;-68
2022/08/29 02:22:28;;;;;;;10.00;3.10;;;;;17.06;97357.80;;;;110875;1250;41259;-68
2022/08/29 02:24:58;;;;;;;9.00;4.30;;;;;17.10;97360.20;;;;110791;1251;41562;-69
2022/08/29 02:27:30;;;;;;;9.90;4.30;;;;;17.10;97362.00;;;;110757;1250;41148;-69
2022/08/29 02:30:01;;;;;;;10.10;4.60;;;;;17.10;97364.80;;;;110815;1251;41160;-67
2022/08/29 02:32:31;;;;;;;9.10;4.50;;;;;17.04;97369.40;;;;110894;1250;41314;-68
2022/08/29 02:35:02;;;;;;;8.70;3.30;;;;;17.00;97369.00;;;;110765;1250;41860;-68
2022/08/29 02:37:32;;;;;;;6.70;2.80;;;;;16.90;97367.60;;;;110772;1250;41141;-68
2022/08/29 02:40:02;;;;;;;;;;;;;16.90;97374.20;;;;110672;1251;41163;-68
2022/08/29 02:42:34;;;;;;;6.30;2.50;;;;;16.90;97370.60;;;;110792;1250;41577;-68
2022/08/29 02:45:04;;;;;;;6.40;2.60;;;;;16.82;97377.20;;;;110921;1251;41124;-69
2022/08/29 02:47:35;;;;;;;7.00;2.70;;;;;16.80;97383.20;;;;110701;1249;41665;-68
2022/08/29 02:50:08;;;;;;;6.60;2.50;;;;;16.80;97381.80;;;;110939;1250;41956;-68
2022/08/29 02:52:41;;;;;;;8.00;2.80;;;;;16.80;97385.60;;;;111028;1251;41626;-72
2022/08/29 02:55:16;;;;;;;9.50;4.20;;;;;16.80;97391.00;;;;110826;1251;41424;-68
2022/08/29 02:57:46;;;;;;;8.70;4.00;;;;;16.80;97395.20;;;;110994;1250;41258;-69
2022/08/29 03:00:27;;;;;;;10.80;4.10;;;;;16.80;97398.40;;;;110835;1250;42374;-68
2022/08/29 03:02:57;;;;;;;7.60;3.10;;;;;16.70;97398.40;;;;110661;1251;41603;-68
2022/08/29 03:05:31;;;;;;;7.30;3.00;;;;;16.70;97395.40;;;;110963;1250;41599;-69
2022/08/29 03:08:04;;;;;;;7.40;2.90;;;;;16.70;97396.80;;;;110976;1250;42942;-68
2022/08/29 03:10:34;;;;;;;8.40;3.00;;;;;16.70;97403.40;;;;110969;1250;41754;-68
2022/08/29 03:13:04;;;;;;;6.50;2.80;;;;;16.60;97409.20;;;;110874;1250;41124;-69
2022/08/29 03:15:34;;;;;;;8.70;2.70;;;;;16.60;97404.00;;;;110808;1250;41671;-68
2022/08/29 03:18:05;;;;;;;8.00;2.70;;;;;16.60;97407.20;;;;110849;1250;41265;-68
2022/08/29 03:20:36;;;;;;;7.50;2.90;;;;;16.60;97406.60;;;;110991;1250;41232;-68
2022/08/29 03:23:07;;;;;;;8.50;3.30;;;;;16.58;97408.00;;;;110879;1250;41160;-69
2022/08/29 03:25:38;;;;;;;9.90;3.40;;;;;16.60;97412.00;;;;110794;1251;41151;-68
2022/08/29 03:28:08;;;;;;;9.30;3.20;;;;;16.60;97415.00;;;;110730;1251;41510;-68
2022/08/29 03:30:38;;;;;;;8.90;3.00;;;;;16.58;97419.60;;;;110774;1250;41287;-68
2022/08/29 03:33:08;;;;;;;7.40;3.40;;;;;16.50;97419.80;;;;110818;1250;41262;-67
2022/08/29 03:35:39;;;;;;;5.60;2.70;;;;;16.50;97422.60;;;;110928;1250;41481;-68
2022/08/29 03:38:09;;;;;;;8.60;2.70;;;;;16.50;97424.80;;;;110774;1251;41904;-68
2022/08/29 03:40:41;;;;;;;6.30;2.90;;;;;16.50;97426.80;;;;110866;1250;41163;-68
2022/08/29 03:43:10;;;;;;;10.90;3.20;;;;;16.50;97428.80;;;;110938;1250;41126;-68
2022/08/29 03:45:41;;;;;;;7.70;3.20;;;;;16.50;97425.40;;;;110724;1252;42296;-67
2022/08/29 03:48:10;;;;;;;7.80;3.20;;;;;16.50;97427.60;;;;110950;1250;41950;-68
2022/08/29 03:50:39;;;;;;;7.00;3.10;;;;;16.50;97435.20;;;;110897;1250;41611;-69
2022/08/29 03:53:09;;;;;;;9.80;3.30;;;;;16.50;97437.00;;;;110801;1250;42051;-68
2022/08/29 03:55:39;;;;;;;6.90;2.90;;;;;16.50;97438.20;;;;110676;1250;41719;-67
2022/08/29 03:58:10;;;;;;;11.50;4.50;;;;;16.52;97435.60;;;;110722;1250;41255;-68
2022/08/29 04:00:40;;;;;;;10.70;4.30;;;;;16.40;97438.60;;;;110731;1251;41277;-69
2022/08/29 04:03:10;;;;;;;9.80;4.00;;;;;16.28;97441.00;;;;110807;1250;41661;-67
2022/08/29 04:05:39;;;;;;;10.70;4.10;;;;;16.20;97442.60;;;;110853;1250;41265;-68
2022/08/29 04:08:09;;;;;;;9.00;4.40;;;;;16.20;97444.00;;;;110829;1250;41634;-68
2022/08/29 04:10:38;;;;;;;10.20;4.10;;;;;16.12;97387.60;;;;110681;1249;41667;-68
2022/08/29 04:13:12;;;;;;;11.40;4.20;;;;;16.50;97353.40;;;;110735;1251;41255;-67
2022/08/29 04:15:42;;;;;;;13.10;4.20;;;;;16.92;97353.00;;;;110896;1251;41502;-68
2022/08/29 04:18:11;;;;;;;8.90;3.70;;;;;17.40;97345.60;;;;110726;1250;41834;-68
2022/08/29 04:20:43;;;;;;;8.20;3.20;;;;;17.90;97361.00;;;;110756;1250;41160;-68
2022/08/29 04:23:14;;;;;;;7.90;3.00;;;;;18.20;97384.20;;;;110693;1250;41490;-68
2022/08/29 04:25:43;;;;;;;7.50;3.40;;;;;18.50;97320.60;;;;110713;1250;41326;-69
2022/08/29 04:28:13;;;;;;;9.50;3.10;;;;;19.00;97312.40;;;;110738;1250;41888;-67
2022/08/29 04:30:47;;;;;;;6.50;2.80;;;;;19.48;97330.60;;;;110686;1250;41269;-68
2022/08/29 04:33:22;;;;;;;7.70;2.80;;;;;19.92;97307.00;;;;111012;1251;41732;-69
2022/08/29 04:35:51;;;;;;;9.10;2.90;;;;;20.50;97311.40;;;;110706;1250;41417;-68
2022/08/29 04:38:21;;;;;;;5.90;2.70;;;;;21.20;97373.00;;;;110768;1250;41121;-68
2022/08/29 04:40:50;;;;;;;7.50;2.80;;;;;21.80;97407.40;;;;110888;1250;41146;-68
2022/08/29 04:43:19;;;;;;;6.80;2.90;;;;;22.30;97411.80;;;;110984;1250;41520;-67
2022/08/29 04:45:56;;;;;;;7.50;3.20;;;;;22.70;97406.40;;;;110719;1251;41223;-68
2022/08/29 04:48:27;;;;;;;7.80;3.10;;;;;23.10;97409.80;;;;110832;1250;41625;-67
2022/08/29 04:50:59;;;;;;;13.90;3.20;;;;;23.50;97407.40;;;;110951;1250;41151;-68
2022/08/29 04:53:28;;;;;;;13.50;3.60;;;;;23.80;97407.00;;;;111004;1250;41159;-68
2022/08/29 04:55:57;;;;;;;9.10;3.80;;;;;24.20;97407.20;;;;109800;1250;1518961;-69
2022/08/29 04:58:27;;;;;;;9.40;3.50;;;;;24.40;97408.20;;;;110994;1250;41775;-69
2022/08/29 05:00:56;;;;;;;9.40;3.10;;;;;24.70;97408.00;;;;110862;1250;41759;-69
2022/08/29 05:03:26;;;;;;;9.30;3.70;;;;;25.02;97405.40;;;;110691;1249;41722;-68
2022/08/29 05:06:00;;;;;;;13.20;3.50;;;;;25.12;97403.60;;;;110675;1250;41255;-69
2022/08/29 05:08:29;;;;;;;8.70;3.00;;;;;25.30;97407.60;;;;110783;1251;42356;-68
2022/08/29 05:10:59;;;;;;;7.80;3.00;;;;;25.70;97413.80;;;;110928;1250;40745;-67
2022/08/29 05:13:27;;;;;;;10.10;3.30;;;;;26.12;97413.40;;;;110915;1250;41682;-68
2022/08/29 05:15:57;;;;;;;6.80;2.60;;;;;26.50;97416.40;;;;110929;1251;41146;-68
2022/08/29 05:18:26;;;;;;;8.90;2.90;;;;;26.90;97414.60;;;;110866;1250;42049;-69
2022/08/29 05:20:55;;;;;;;7.20;2.70;;;;;27.30;97420.80;;;;110928;1250;41148;-69
2022/08/29 05:23:24;;;;;;;16.20;3.60;;;;;27.70;97420.00;;;;110921;1251;41708;-69
2022/08/29 05:25:58;;;;;;;9.10;3.10;;;;;28.00;97421.60;;;;110830;1250;42770;-70
2022/08/29 05:28:29;;;;;;;9.30;2.90;;;;;28.30;97427.20;;;;110916;1250;41791;-69
2022/08/29 05:30:58;;;;;;;6.90;2.80;;;;;28.66;97418.40;;;;110917;1250;42277;-69
2022/08/29 05:33:27;;;;;;;7.30;2.70;;;;;29.00;97424.00;;;;110688;1250;41724;-69
2022/08/29 05:35:57;;;;;;;10.70;2.80;;;;;29.38;97418.80;;;;110952;1250;41275;-69
2022/08/29 05:38:26;;;;;;;9.30;2.90;;;;;29.50;97425.40;;;;110980;1250;41669;-69
2022/08/29 05:40:54;;;;;;;10.30;3.10;;;;;29.52;97420.40;;;;110843;1249;41160;-69
2022/08/29 05:43:24;;;;;;;8.30;2.90;;;;;29.20;97421.00;;;;110658;1249;41689;-69
2022/08/29 05:46:03;;;;;;;11.50;3.40;;;;;29.40;97422.00;;;;110637;1250;41568;-69
2022/08/29 05:48:33;;;;;;;8.10;2.90;;;;;29.32;97421.20;;;;110671;1251;41275;-69
2022/08/29 05:51:02;;;;;;;8.60;2.90;;;;;29.50;97422.40;;;;110752;1250;42485;-70
2022/08/29 05:53:33;;;;;;;8.40;3.10;;;;;29.90;97423.00;;;;110959;1250;41258;-69
2022/08/29 05:56:02;;;;;;;13.90;3.30;;;;;30.06;97420.20;;;;110888;1251;41153;-69
2022/08/29 05:58:31;;;;;;;7.30;2.70;;;;;30.10;97420.60;;;;110879;1251;41219;-70
2022/08/29 06:00:59;;;;;;;7.40;2.90;;;;;30.08;97421.40;;;;110632;1251;42090;-70
2022/08/29 06:03:28;;;;;;;7.60;2.90;;;;;30.10;97419.80;;;;110829;1251;41178;-70
2022/08/29 06:05:58;;;;;;;8.00;2.80;;;;;30.12;97421.20;;;;110589;1249;41155;-70
2022/08/29 06:08:27;;;;;;;7.90;2.70;;;;;30.56;97424.40;;;;110832;1250;41504;-70
2022/08/29 06:10:56;;;;;;;6.40;2.40;;;;;30.90;97422.40;;;;110672;1250;41188;-70
2022/08/29 06:13:25;;;;;;;11.40;3.50;;;;;31.30;97429.60;;;;110787;1250;41271;-70
2022/08/29 06:15:54;;;;;;;11.10;2.80;;;;;31.30;97427.80;;;;110767;1249;41216;-70
2022/08/29 06:18:22;;;;;;;9.20;2.50;;;;;31.34;97426.40;;;;110658;1250;41176;-69
2022/08/29 06:21:03;;;;;;;11.20;2.70;;;;;31.50;97429.60;;;;110646;1251;41327;-70
2022/08/29 06:23:33;;;;;;;7.70;2.60;;;;;31.80;97432.40;;;;110997;1250;41151;-70
2022/08/29 06:26:03;;;;;;;7.00;2.50;;;;;32.06;97435.40;;;;110660;1250;41950;-70
2022/08/29 06:28:33;;;;;;;6.60;2.10;;;;;32.40;97431.80;;;;110626;1252;41201;-70
2022/08/29 06:31:12;;;;;;;7.10;2.50;;;;;32.72;97439.00;;;;110672;1251;41122;-69
2022/08/29 06:33:41;;;;;;;6.80;2.40;;;;;32.80;97443.00;;;;110864;1249;41150;-71
2022/08/29 06:36:11;;;;;;;8.70;2.50;;;;;33.10;97441.00;;;;110631;1252;41138;-70
2022/08/29 06:38:39;;;;;;;8.50;2.80;;;;;33.10;97441.00;;;;110555;1251;41153;-71
2022/08/29 06:41:11;;;;;;;9.50;3.10;;;;;33.00;97439.80;;;;110874;1251;41927;-69
2022/08/29 06:43:40;;;;;;;5.90;2.10;;;;;33.02;97442.60;;;;110670;1249;41168;-69
2022/08/29 06:46:26;;;;;;;9.70;2.70;;;;;33.30;97445.40;;;;110708;1250;41752;-70
2022/08/29 06:48:57;;;;;;;9.20;3.00;;;;;33.50;97457.60;;;;110753;1251;41324;-70
2022/08/29 06:51:26;;;;;;;6.70;2.70;;;;;33.24;97454.80;;;;110743;1250;41206;-72
2022/08/29 06:53:55;;;;;;;7.30;2.50;;;;;32.16;97459.00;;;;110743;1249;41172;-72
2022/08/29 06:56:24;;;;;;;7.10;3.10;;;;;31.72;97456.40;;;;110840;1251;41144;-71
2022/08/29 06:58:53;;;;;;;6.50;2.50;;;;;32.00;97462.40;;;;110653;1252;41161;-71
2022/08/29 07:01:22;;;;;;;11.80;3.20;;;;;32.40;97463.20;;;;110818;1250;41267;-70
2022/08/29 07:03:53;;;;;;;6.30;2.50;;;;;32.80;97471.60;;;;110923;1250;41176;-70
2022/08/29 07:06:22;;;;;;;7.80;2.90;;;;;33.10;97473.00;;;;110707;1251;41144;-70
2022/08/29 07:08:51;;;;;;;5.90;2.50;;;;;33.50;97468.20;;;;110764;1250;41133;-70
2022/08/29 07:11:25;;;;;;;7.20;2.80;;;;;34.10;97464.80;;;;110841;1250;41163;-71
2022/08/29 07:13:59;;;;;;;7.00;2.50;;;;;34.60;97460.40;;;;110818;1250;41131;-71
2022/08/29 07:16:28;;;;;;;9.70;2.70;;;;;34.90;97464.40;;;;110700;1251;41164;-71
2022/08/29 07:18:57;;;;;;;9.60;2.80;;;;;35.40;97460.20;;;;110895;1248;41334;-70
2022/08/29 07:21:26;;;;;;;7.40;2.60;;;;;35.56;97459.20;;;;110962;1250;41151;-72
2022/08/29 07:23:56;;;;;;;10.50;3.30;;;;;35.80;97458.80;;;;110706;1251;41187;-71
2022/08/29 07:26:34;;;;;;;10.10;2.40;;;;;36.00;97458.00;;;;110785;1250;41150;-71
2022/08/29 07:29:10;;;;;;;9.10;3.00;;;;;35.68;97463.20;;;;110878;1251;41266;-72
2022/08/29 07:31:38;;;;;;;10.50;3.00;;;;;35.78;97465.80;;;;110663;1250;41272;-72
2022/08/29 07:34:08;;;;;;;7.10;2.30;;;;;35.04;97464.40;;;;110635;1251;41566;-71
2022/08/29 07:36:37;;;;;;;9.30;2.60;;;;;34.80;97467.80;;;;110652;1251;41697;-72
2022/08/29 07:39:10;;;;;;;9.50;3.00;;;;;34.90;97471.80;;;;110766;1251;41615;-71
2022/08/29 07:41:40;;;;;;;4.50;1.90;;;;;34.44;97471.20;;;;110775;1250;41161;-72
2022/08/29 07:44:10;;;;;;;5.30;2.40;;;;;34.80;97469.80;;;;110859;1250;41458;-72
2022/08/29 07:46:40;;;;;;;7.00;2.70;;;;;34.68;97470.00;;;;110832;1250;41596;-71
2022/08/29 07:49:10;;;;;;;8.10;2.40;;;;;34.06;97468.60;;;;110598;1250;41141;-71
2022/08/29 07:51:39;;;;;;;11.80;2.80;;;;;33.26;97464.00;;;;110788;1250;41632;-70
2022/08/29 07:54:15;;;;;;;9.20;3.10;;;;;32.98;97465.80;;;;110719;1250;41581;-70
2022/08/29 07:56:46;;;;;;;10.30;3.10;;;;;33.02;97464.20;;;;110663;1250;41843;-70
2022/08/29 07:59:16;;;;;;;10.70;2.90;;;;;32.80;97466.40;;;;110632;1250;41189;-69
2022/08/29 08:01:45;;;;;;;10.20;2.90;;;;;32.70;97469.00;;;;110682;1250;41153;-71
2022/08/29 08:04:14;;;;;;;9.10;2.90;;;;;32.56;97466.20;;;;110779;1250;41189;-71
2022/08/29 08:06:43;;;;;;;7.70;2.40;;;;;32.62;97472.20;;;;110670;1250;41633;-71
2022/08/29 08:09:14;;;;;;;10.90;2.60;;;;;32.60;97467.80;;;;110557;1251;40955;-72
2022/08/29 08:11:42;;;;;;;6.80;2.80;;;;;32.78;97469.20;;;;110655;1251;41570;-72
2022/08/29 08:14:11;;;;;;;8.00;2.80;;;;;33.44;97467.40;;;;110616;1251;41889;-71
2022/08/29 08:16:40;;;;;;;7.40;2.60;;;;;34.36;97456.80;;;;110622;1251;42229;-71
2022/08/29 08:19:15;;;;;;;10.80;3.40;;;;;34.90;97451.60;;;;110667;1250;41131;-71
2022/08/29 08:21:44;;;;;;;8.40;2.40;;;;;35.30;97447.60;;;;110610;1250;41774;-72
2022/08/29 08:24:19;;;;;;;10.20;3.40;;;;;35.18;97448.20;;;;110623;1251;41751;-72
2022/08/29 08:26:48;;;;;;;8.20;2.40;;;;;35.36;97449.20;;;;110603;1251;41620;-72
2022/08/29 08:29:17;;;;;;;9.40;2.80;;;;;35.70;97446.20;;;;110569;1250;41195;-72
2022/08/29 08:31:48;;;;;;;10.20;2.50;;;;;36.58;97440.60;;;;110688;1250;41173;-72
2022/08/29 08:34:18;;;;;;;6.50;2.40;;;;;36.30;97441.00;;;;111008;1250;41215;-72
2022/08/29 08:36:47;;;;;;;8.50;2.50;;;;;37.22;97433.20;;;;110678;1250;41690;-72
2022/08/29 08:39:16;;;;;;;5.60;2.20;;;;;37.80;97437.20;;;;110817;1248;41249;-72
2022/08/29 08:42:02;;;;;;;9.40;2.70;;;;;38.20;97430.00;;;;110737;1250;41262;-72
2022/08/29 08:45:10;;;;;;;7.80;2.50;;;;;37.90;97431.60;;;;110717;1248;42409;-71
2022/08/29 08:47:43;;;;;;;8.90;2.50;;;;;37.96;97441.40;;;;110596;1250;42429;-71
2022/08/29 08:50:17;;;;;;;7.40;2.50;;;;;37.90;97440.20;;;;110662;1250;41617;-73
2022/08/29 08:52:49;;;;;;;8.70;2.80;;;;;37.42;97442.00;;;;110768;1250;41586;-73
2022/08/29 08:55:46;;;;;;;8.50;2.90;;;;;37.60;97437.00;;;;110980;1248;41284;-72
2022/08/29 08:58:35;;;;;;;9.60;2.80;;;;;38.02;97433.40;;;;110900;1250;41621;-72
2022/08/29 09:01:23;;;;;;;10.00;2.60;;;;;37.90;97435.40;;;;110738;1249;42395;-72
2022/08/29 09:04:20;;;;;;;6.60;2.40;;;;;37.68;97435.80;;;;110630;1250;41259;-72
2022/08/29 09:07:00;;;;;;;9.30;3.10;;;;;37.72;97438.80;;;;110573;1251;42339;-72
2022/08/29 09:09:42;;;;;;;7.70;2.80;;;;;37.78;97438.40;;;;110666;1251;41251;-72
2022/08/29 09:12:26;;;;;;;11.00;2.90;;;;;37.22;97435.40;;;;110684;1251;41307;-72
2022/08/29 09:14:57;;;;;;;9.50;2.50;;;;;37.00;97434.20;;;;110675;1251;41144;-73
2022/08/29 09:17:40;;;;;;;6.00;2.20;;;;;37.62;97439.60;;;;110542;1253;41272;-72
2022/08/29 09:20:16;;;;;;;8.50;2.40;;;;;38.74;97437.20;;;;110658;1251;42557;-73
2022/08/29 09:22:58;;;;;;;9.00;2.90;;;;;39.10;97435.60;;;;110624;1251;41236;-73
2022/08/29 09:25:29;;;;;;;7.00;2.70;;;;;39.20;97434.40;;;;110558;1253;42193;-72
2022/08/29 09:27:59;;;;;;;6.60;2.70;;;;;39.00;97433.60;;;;110612;1250;41147;-73
2022/08/29 09:30:30;;;;;;;7.90;2.30;;;;;39.20;97435.40;;;;110589;1250;41613;-73
2022/08/29 09:33:07;;;;;;;7.50;2.60;;;;;38.96;97433.60;;;;110574;1251;41638;-72
2022/08/29 09:35:42;;;;;;;13.60;2.50;;;;;39.06;97434.00;;;;110592;1253;41144;-75
2022/08/29 09:38:17;;;;;;;7.40;2.70;;;;;39.24;97432.60;;;;110596;1251;41268;-73
2022/08/29 09:41:02;;;;;;;7.90;2.30;;;;;39.26;97429.40;;;;110513;1253;41161;-73
2022/08/29 09:43:37;;;;;;;6.50;2.00;;;;;39.96;97427.20;;;;110559;1251;41156;-72
2022/08/29 09:46:12;;;;;;;8.90;2.60;;;;;40.24;97428.60;;;;110582;1251;42237;-73
2022/08/29 09:48:50;;;;;;;8.20;2.60;;;;;39.62;97429.00;;;;110541;1253;41256;-72
2022/08/29 09:51:29;;;;;;;9.20;2.60;;;;;39.60;97434.00;;;;110579;1251;41232;-72
2022/08/29 09:54:16;;;;;;;8.90;2.50;;;;;39.52;97426.40;;;;110289;1254;41784;-72
2022/08/29 09:57:09;;;;;;;6.60;2.20;;;;;40.10;97425.60;;;;110564;1251;41162;-73
2022/08/29 09:59:43;;;;;;;8.40;2.40;;;;;40.40;97427.80;;;;110617;1251;41370;-72
2022/08/29 10:02:18;;;;;;;8.10;2.10;;;;;40.50;97426.20;;;;110602;1253;41902;-73
2022/08/29 10:04:59;;;;;;;7.60;2.30;;;;;40.24;97431.00;;;;110601;1251;42439;-73
2022/08/29 10:07:31;;;;;;;8.30;2.50;;;;;40.50;97430.20;;;;110578;1251;41184;-72
2022/08/29 10:10:16;;;;;;;8.10;2.30;;;;;40.98;97427.40;;;;110728;1250;41345;-72
2022/08/29 10:13:04;;;;;;;11.00;2.90;;;;;40.96;97430.20;;;;110608;1249;41153;-73
2022/08/29 10:15:57;;;;;;;6.90;2.40;;;;;40.30;97432.60;;;;110640;1251;41651;-73
2022/08/29 10:18:46;;;;;;;6.10;2.10;;;;;40.38;97435.60;;;;110684;1251;41741;-73
2022/08/29 10:21:23;;;;;;;10.00;3.20;;;;;40.34;97430.60;;;;110909;1250;41265;-73
2022/08/29 10:24:17;;;;;;;5.40;2.00;;;;;40.78;97421.60;;;;110662;1250;42899;-73
2022/08/29 10:27:03;;;;;;;7.30;2.10;;;;;40.50;97423.20;;;;110645;1251;41202;-73
2022/08/29 10:29:48;;;;;;;6.00;2.00;;;;;41.16;97423.80;;;;110950;1249;41263;-73
2022/08/29 10:32:43;;;;;;;7.70;2.60;;;;;42.14;97420.40;;;;110622;1251;41160;-72
2022/08/29 10:35:35;;;;;;;14.80;3.10;;;;;41.80;97415.80;;;;110547;1251;41598;-73
2022/08/29 10:38:16;;;;;;;5.90;2.40;;;;;41.38;97416.60;;;;110598;1252;41164;-73
2022/08/29 10:40:55;;;;;;;6.50;2.20;;;;;41.14;97416.20;;;;110726;1251;41143;-73
2022/08/29 10:43:24;;;;;;;10.40;3.00;;;;;41.52;97418.40;;;;110568;1251;41278;-73
2022/08/29 10:46:05;;;;;;;12.50;2.80;;;;;41.60;97415.60;;;;110620;1251;41345;-73
2022/08/29 10:49:04;;;;;;;9.00;2.60;;;;;41.12;97419.40;;;;110732;1251;41190;-73
2022/08/29 10:51:34;;;;;;;8.30;2.70;;;;;40.30;97422.20;;;;110837;1251;41157;-73
2022/08/29 10:54:33;;;;;;;9.90;3.20;;;;;39.92;97411.20;;;;110760;1251;41728;-73
2022/08/29 10:57:02;;;;;;;8.10;2.70;;;;;38.82;97420.40;;;;110650;1251;41259;-73
2022/08/29 10:59:40;;;;;;;8.70;2.60;;;;;38.66;97422.20;;;;110611;1251;41307;-73
2022/08/29 11:02:33;;;;;;;7.30;2.50;;;;;39.26;97411.20;;;;110877;1250;41228;-73
2022/08/29 11:05:09;;;;;;;5.90;2.30;;;;;40.00;97403.00;;;;110642;1252;41710;-74
2022/08/29 11:08:12;;;;;;;5.30;2.20;;;;;40.48;97401.80;;;;110711;1251;42235;-74
2022/08/29 11:10:48;;;;;;;6.70;2.40;;;;;40.24;97399.80;;;;110628;1252;41386;-73
2022/08/29 11:13:41;;;;;;;6.00;2.20;;;;;40.50;97397.80;;;;110563;1251;41636;-73
2022/08/29 11:16:16;;;;;;;5.50;2.30;;;;;41.00;97396.60;;;;110637;1251;41622;-74
2022/08/29 11:18:53;;;;;;;6.90;2.40;;;;;41.32;97398.00;;;;110652;1251;41146;-73
2022/08/29 11:21:36;;;;;;;6.60;2.50;;;;;41.70;97389.60;;;;110642;1251;41157;-73
2022/08/29 11:24:06;;;;;;;9.20;2.90;;;;;41.88;97387.80;;;;110635;1251;42316;-73
2022/08/29 11:26:43;;;;;;;6.90;2.60;;;;;42.30;97390.40;;;;110584;1251;41980;-74
2022/08/29 11:29:15;;;;;;;6.40;2.20;;;;;42.66;97382.20;;;;110615;1251;41283;-75
2022/08/29 11:32:02;;;;;;;5.30;2.00;;;;;43.36;97383.40;;;;110741;1251;41144;-75
2022/08/29 11:34:39;;;;;;;10.90;3.00;;;;;44.06;97379.60;;;;110787;1251;41737;-75
2022/08/29 11:37:31;;;;;;;5.50;2.00;;;;;43.48;97381.00;;;;110794;1251;43093;-73
2022/08/29 11:40:10;;;;;;;10.40;2.40;;;;;44.02;97379.40;;;;110798;1251;41162;-73
2022/08/29 11:42:41;;;;;;;8.40;2.40;;;;;44.42;97379.40;;;;110633;1251;41353;-74
2022/08/29 11:45:26;;;;;;;6.50;2.10;;;;;44.98;97368.60;;;;110649;1251;41256;-73
2022/08/29 11:48:32;;;;;;;6.60;2.40;;;;;45.66;97366.80;;;;110582;1252;41899;-74
2022/08/29 11:51:32;;;;;;;6.90;2.40;;;;;46.16;97361.80;;;;110709;1250;41701;-75
2022/08/29 11:54:27;;;;;;;4.70;1.90;;;;;46.46;97365.00;;;;110799;1251;42399;-74
2022/08/29 11:56:59;;;;;;;10.20;2.80;;;;;46.88;97360.40;;;;110897;1250;41472;-75
2022/08/29 11:59:47;;;;;;;6.10;2.10;;;;;46.86;97368.00;;;;110718;1251;41174;-74
2022/08/29 12:02:28;;;;;;;7.30;2.40;;;;;46.34;97368.40;;;;110635;1251;42396;-74
2022/08/29 12:05:05;;;;;;;6.90;2.20;;;;;45.44;97368.60;;;;110630;1252;41243;-75
2022/08/29 12:08:00;;;;;;;7.10;2.50;;;;;44.90;97366.00;;;;110689;1251;41523;-75
2022/08/29 12:10:54;;;;;;;8.20;2.50;;;;;45.00;97367.80;;;;110726;1251;41158;-74
2022/08/29 12:13:45;;;;;;;5.80;2.40;;;;;44.54;97366.20;;;;110692;1251;42051;-74
2022/08/29 12:16:18;;;;;;;8.40;2.40;;;;;43.38;97363.00;;;;110740;1251;41163;-74
2022/08/29 12:18:53;;;;;;;9.00;2.60;;;;;42.34;97362.60;;;;110551;1251;41722;-74
2022/08/29 12:21:38;;;;;;;9.50;2.90;;;;;41.58;97367.20;;;;110548;1251;41371;-74
2022/08/29 12:24:27;;;;;;;6.00;2.50;;;;;40.70;97367.20;;;;110571;1251;41171;-73
2022/08/29 12:26:56;;;;;;;8.60;2.50;;;;;40.26;97363.20;;;;110723;1251;41151;-73
2022/08/29 12:29:24;;;;;;;;;;;;;39.82;97357.60;;;;110608;1251;41253;-73
2022/08/29 12:32:12;;;;;;;7.30;2.70;;;;;39.80;97368.20;;;;110555;1251;41151;-73
2022/08/29 12:35:23;;;;;;;6.40;2.40;;;;;39.80;97371.40;;;;110814;1251;41590;-73
2022/08/29 12:38:32;;;;;;;6.90;2.40;;;;;39.90;97371.40;;;;110593;1250;41149;-73
2022/08/29 12:41:21;;;;;;;6.40;2.60;;;;;39.60;97377.60;;;;110595;1252;41642;-74
2022/08/29 12:43:53;;;;;;;9.40;3.10;;;;;39.20;97381.20;;;;110700;1251;41318;-74
2022/08/29 12:46:28;;;;;;;9.70;2.80;;;;;38.70;97388.60;;;;110578;1251;42179;-74